CST,Max TemperatureF,Mean TemperatureF,Min TemperatureF,Max Dew PointF,MeanDew PointF,Min DewpointF,Max Humidity, Mean Humidity, Min Humidity, Max Sea Level PressureIn, Mean Sea Level PressureIn, Min Sea Level PressureIn, Max VisibilityMiles, Mean VisibilityMiles, Min VisibilityMiles, Max Wind SpeedMPH, Mean Wind SpeedMPH, Max Gust SpeedMPH,PrecipitationIn, CloudCover, Events, WindDirDegrees
2012-1-1,33,27,20,34,27,14,100,90,74,30.13,29.87,29.59,10,8,2,30,15,40,0.09,7,Rain-Snow,297
2012-1-2,19,12,4,13,10,0,84,73,58,30.50,30.23,30.14,10,10,9,24,20,38,0.00,6,Snow,307
2012-1-3,26,13,0,12,6,-1,92,66,43,30.48,30.22,29.93,10,10,10,15,6,17,0.00,3,,182
2012-1-4,33,25,15,23,18,12,100,81,60,30.06,30.00,29.91,10,10,10,14,6,,0.00,3,,263
2012-1-5,51,32,14,34,27,15,100,76,47,29.99,29.79,29.59,10,10,10,12,4,,0.00,4,,228
2012-1-6,50,42,33,32,29,26,77,62,43,29.79,29.70,29.60,10,10,10,17,9,,0.00,5,,281
2012-1-7,37,26,16,28,23,16,99,74,56,30.26,30.05,29.81,10,10,10,21,11,26,0.00,3,,301
2012-1-8,41,27,13,30,24,14,100,85,57,30.34,30.28,30.17,10,10,10,10,4,,0.00,0,,208
2012-1-9,46,38,28,30,28,27,100,73,46,30.15,29.97,29.86,10,10,10,18,11,25,0.00,2,,250
2012-1-10,51,34,17,36,23,18,100,92,47,30.00,29.94,29.69,10,5,0,12,1,17,0.00,0,Fog,184
2012-1-11,51,38,23,36,29,23,100,83,44,29.68,29.63,29.57,10,9,4,20,7,24,0.00,5,Snow,290
2012-1-12,21,18,14,21,15,10,100,93,80,29.66,29.64,29.56,10,3,1,20,15,25,0.00,8,Snow,313
2012-1-13,17,15,13,10,9,8,86,79,73,30.05,30.00,29.85,10,10,7,17,11,23,0.00,8,Snow,287
2012-1-14,18,13,8,10,7,3,92,78,55,30.20,30.12,30.04,10,10,10,6,1,,0.00,7,Snow,140
2012-1-15,33,24,14,27,20,12,100,86,65,30.23,30.10,29.88,10,10,10,16,6,,0.00,5,,138
2012-1-16,39,29,19,30,27,20,100,91,68,29.84,29.79,29.72,10,10,6,9,4,,0.00,2,,5
2012-1-17,30,16,1,27,14,-4,100,81,68,30.28,30.00,29.79,10,7,1,22,13,29,0.02,6,Snow,318
2012-1-18,23,8,-5,19,3,-9,93,73,49,30.29,30.02,29.70,10,10,6,22,6,31,0.00,5,Snow,192
2012-1-19,17,2,-13,10,-8,-19,79,65,43,30.25,30.03,29.75,10,10,9,26,18,34,0.00,1,Snow,295
2012-1-20,5,-4,-13,1,-7,-18,87,81,72,30.29,30.24,30.15,10,6,0,7,2,,0.11,4,Snow,105
2012-1-21,17,1,-15,5,-8,-20,92,72,42,30.31,30.28,30.22,10,10,10,7,3,,0.00,2,,154
2012-1-22,30,24,19,30,27,18,100,100,93,29.85,29.64,29.46,10,3,2,13,9,,0.00,8,Snow,111
2012-1-23,32,28,23,32,29,22,100,99,86,29.88,29.46,29.35,10,5,1,20,5,28,0.15,8,Rain-Snow,296
2012-1-24,28,20,12,22,19,12,100,93,74,30.35,30.13,29.88,10,10,7,16,12,,0.00,7,,276
2012-1-25,32,25,18,27,23,18,100,88,75,30.38,30.20,30.00,10,10,10,12,4,,0.00,6,,147
2012-1-26,35,30,26,34,30,25,100,97,75,29.97,29.80,29.65,10,6,0,15,7,,0.02,7,Fog,199
2012-1-27,37,26,15,34,26,14,100,86,40,29.90,29.82,29.73,10,9,4,22,11,26,0.00,5,Snow,236
2012-1-28,30,24,18,30,17,12,100,75,61,30.02,29.94,29.81,10,10,10,24,16,34,0.01,3,Snow,274
2012-1-29,23,14,4,19,14,2,100,90,54,30.21,30.04,29.96,10,8,2,17,4,,0.00,5,Snow,304
2012-1-30,41,25,9,28,21,7,100,80,57,30.13,29.86,29.74,10,10,10,14,7,,0.00,6,,131
2012-1-31,48,36,25,37,34,26,100,80,58,29.92,29.73,29.65,10,10,10,22,8,25,0.00,4,,235